Time;durP1;ratioP1;P1;durP2;ratioP2;P2;SDS_P1;SDS_P2;PMS_P1;PMS_P2;Temp;Humidity;BMP_temperature;BMP_pressure;BME280_temperature;BME280_humidity;BME280_pressure;Samples;Min_cycle;Max_cycle;Signal;HPM_P1;HPM_P2
2022/08/09 00:00:22;;;;;;;3.73;1.50;;;;;;;26.13;74.00;99003.88;4828524;29;20058;-56
2022/08/09 00:02:54;;;;;;;1.60;1.10;;;;;;;25.99;73.94;99024.00;4828960;29;20061;-58
2022/08/09 00:05:25;;;;;;;3.63;1.43;;;;;;;25.68;74.16;99032.38;4828460;29;20111;-57
2022/08/09 00:08:16;;;;;;;1.90;1.30;;;;;;;25.82;75.13;99023.81;4828630;29;20061;-57
2022/08/09 00:11:01;;;;;;;4.20;1.30;;;;;;;26.18;74.37;99021.13;4828315;29;20328;-56
2022/08/09 00:13:46;;;;;;;1.70;1.10;;;;;;;26.56;72.90;99021.78;4828111;29;20079;-58
2022/08/09 00:16:18;;;;;;;3.80;1.43;;;;;;;26.58;72.89;98987.63;4828674;29;20058;-58
2022/08/09 00:19:06;;;;;;;4.18;1.30;;;;;;;26.78;71.68;99025.75;4828140;29;20073;-58
2022/08/09 00:21:39;;;;;;;4.83;2.03;;;;;;;26.45;71.49;99024.69;4827587;29;20051;-57
2022/08/09 00:24:25;;;;;;;4.40;0.93;;;;;;;26.61;70.55;99030.19;4827579;29;20058;-56
2022/08/09 00:26:56;;;;;;;4.07;1.40;;;;;;;26.83;70.52;99033.31;4827958;29;20069;-57
2022/08/09 00:29:30;;;;;;;5.23;1.50;;;;;;;26.74;71.20;99024.41;4827964;29;20050;-57
2022/08/09 00:32:21;;;;;;;3.03;1.10;;;;;;;26.93;70.80;99026.00;4827350;29;20054;-57
2022/08/09 00:34:56;;;;;;;3.90;1.20;;;;;;;27.07;70.03;99030.75;4827769;29;20485;-56
2022/08/09 00:37:27;;;;;;;6.33;1.40;;;;;;;27.23;68.76;99031.84;4828189;29;20224;-57
2022/08/09 00:40:01;;;;;;;1.50;1.03;;;;;;;27.09;68.24;99026.09;4828013;29;20142;-56
2022/08/09 00:42:45;;;;;;;4.00;1.10;;;;;;;27.14;67.68;99019.41;4828273;29;20451;-56
2022/08/09 00:45:37;;;;;;;1.20;1.10;;;;;;;27.21;68.95;99024.00;4828056;29;20146;-57
2022/08/09 00:48:22;;;;;;;2.90;1.47;;;;;;;27.32;68.82;99012.94;4828185;29;20077;-56
2022/08/09 00:50:54;;;;;;;4.30;1.30;;;;;;;27.40;68.96;99004.09;4827979;29;20054;-57
2022/08/09 00:53:25;;;;;;;3.57;1.40;;;;;;;27.35;68.74;98995.69;4827481;29;20109;-56
2022/08/09 00:55:56;;;;;;;7.03;1.40;;;;;;;27.68;69.48;99041.38;4827876;29;20058;-55
2022/08/09 00:58:38;;;;;;;4.67;1.37;;;;;;;27.63;68.90;99027.59;4826164;29;20130;-55
2022/08/09 01:01:13;;;;;;;3.90;1.60;;;;;;;27.68;69.56;99019.91;4827981;29;20047;-57
2022/08/09 01:03:55;;;;;;;4.10;1.70;;;;;;;27.33;67.78;99016.47;4827668;29;20058;-55
2022/08/09 01:06:34;;;;;;;3.13;1.40;;;;;;;26.94;69.64;99025.00;4827735;29;20042;-56
2022/08/09 01:09:33;;;;;;;2.70;1.97;;;;;;;27.04;69.97;99017.69;4827647;29;20050;-56
2022/08/09 01:12:14;;;;;;;2.67;1.40;;;;;;;26.49;68.68;98951.06;4827398;29;20125;-56
2022/08/09 01:14:50;;;;;;;6.43;1.90;;;;;;;26.84;70.56;99013.56;4827671;29;20066;-55
2022/08/09 01:17:31;;;;;;;3.20;1.50;;;;;;;27.21;70.98;99010.59;4827378;29;20073;-57
2022/08/09 01:20:06;;;;;;;2.70;1.20;;;;;;;27.23;69.80;98994.31;4827237;29;20050;-56
2022/08/09 01:23:07;;;;;;;1.63;1.43;;;;;;;27.49;69.54;98996.91;4827313;29;20054;-55
2022/08/09 01:26:13;;;;;;;3.20;1.60;;;;;;;27.81;69.87;99001.50;4827026;29;20054;-56
2022/08/09 01:28:48;;;;;;;5.97;1.40;;;;;;;27.92;67.57;99000.34;4826441;29;20066;-55
2022/08/09 01:31:23;;;;;;;5.73;1.73;;;;;;;27.95;68.50;98992.78;4827139;29;20069;-55
2022/08/09 01:34:18;;;;;;;2.57;1.60;;;;;;;28.04;66.99;99000.84;4827118;29;20087;-56
2022/08/09 01:36:51;;;;;;;8.20;1.70;;;;;;;28.11;66.77;98991.97;4827275;29;20529;-56
2022/08/09 01:39:25;;;;;;;2.57;0.90;;;;;;;28.32;66.10;98994.09;4827328;29;20342;-55
2022/08/09 01:41:56;;;;;;;2.37;1.10;;;;;;;28.37;64.64;98989.06;4827466;29;20059;-57
2022/08/09 01:44:35;;;;;;;3.30;1.50;;;;;;;28.52;64.35;98993.78;4827124;29;20327;-53
2022/08/09 01:47:08;;;;;;;2.13;1.20;;;;;;;28.88;64.88;98988.81;4827137;29;20181;-57
2022/08/09 01:49:42;;;;;;;1.30;1.17;;;;;;;29.07;63.72;98986.75;4826762;29;20058;-58
2022/08/09 01:52:21;;;;;;;4.83;1.30;;;;;;;29.20;61.87;98987.00;4827175;29;20058;-56
2022/08/09 01:54:58;;;;;;;3.10;1.53;;;;;;;29.19;61.57;98980.78;4824095;29;20050;-56
2022/08/09 01:57:36;;;;;;;3.43;1.20;;;;;;;29.21;59.85;98978.75;4826128;29;20352;-56
2022/08/09 02:00:15;;;;;;;1.23;1.00;;;;;;;29.32;60.25;98987.44;4826913;29;20227;-56
2022/08/09 02:03:07;;;;;;;4.23;1.33;;;;;;;29.35;61.37;98984.41;4826790;29;20121;-57
2022/08/09 02:05:43;;;;;;;5.83;1.50;;;;;;;29.22;60.77;98983.13;4826945;29;20125;-56
2022/08/09 02:08:37;;;;;;;2.63;1.60;;;;;;;29.33;61.50;98970.28;4826716;29;20303;-56
2022/08/09 02:11:29;;;;;;;5.07;1.70;;;;;;;29.48;59.35;98978.44;4827039;29;20054;-55
2022/08/09 02:14:16;;;;;;;2.50;1.30;;;;;;;29.46;59.50;98973.25;4826624;29;20050;-55
2022/08/09 02:16:59;;;;;;;3.33;1.60;;;;;;;29.39;59.75;98964.22;4826903;29;20123;-55
2022/08/09 02:19:51;;;;;;;4.63;1.60;;;;;;;29.18;60.98;98957.59;4825659;29;20077;-55
2022/08/09 02:22:27;;;;;;;3.73;1.50;;;;;;;28.77;61.88;98965.81;4825901;29;20058;-54
2022/08/09 02:25:08;;;;;;;1.80;1.67;;;;;;;28.46;61.24;98951.50;4825880;29;20533;-55
2022/08/09 02:27:56;;;;;;;2.90;1.20;;;;;;;28.34;61.97;98965.22;4825661;29;20076;-55
2022/08/09 02:30:39;;;;;;;4.40;1.40;;;;;;;28.45;62.24;98961.38;4825463;29;20117;-54
2022/08/09 02:33:15;;;;;;;1.90;0.90;;;;;;;28.38;56.99;98966.56;4826230;29;20296;-55
2022/08/09 02:35:48;;;;;;;2.70;1.30;;;;;;;28.22;54.04;98965.75;4826410;29;20268;-55
2022/08/09 02:38:36;;;;;;;0.97;0.83;;;;;;;28.34;51.95;98964.41;4825896;29;20371;-57
2022/08/09 02:41:11;;;;;;;4.03;0.90;;;;;;;28.38;46.51;98966.56;4825569;29;20343;-55
2022/08/09 02:43:45;;;;;;;2.37;0.80;;;;;;;28.32;44.60;98956.50;4826182;29;20069;-56
2022/08/09 02:46:27;;;;;;;2.23;0.70;;;;;;;28.37;46.59;98948.78;4826532;29;20057;-57
2022/08/09 02:49:04;;;;;;;3.43;0.90;;;;;;;28.27;45.61;98953.50;4826653;29;20050;-57
2022/08/09 02:51:39;;;;;;;1.97;1.10;;;;;;;28.27;47.65;98948.13;4826442;29;20058;-57
2022/08/09 02:54:13;;;;;;;3.60;1.27;;;;;;;28.28;44.43;98944.44;4825022;29;20308;-57
2022/08/09 02:56:48;;;;;;;4.10;1.10;;;;;;;28.15;43.29;98944.09;4824532;29;20073;-57
2022/08/09 02:59:26;;;;;;;0.80;0.80;;;;;;;28.03;42.12;98945.47;4826009;29;20392;-57
2022/08/09 03:02:07;;;;;;;3.27;1.00;;;;;;;28.06;43.31;98950.53;4824968;29;20058;-57
2022/08/09 03:04:48;;;;;;;3.87;0.70;;;;;;;28.04;42.71;98947.16;4825289;29;20335;-58
2022/08/09 03:07:20;;;;;;;2.40;1.17;;;;;;;28.12;44.48;98945.28;4825174;29;20392;-57
2022/08/09 03:09:52;;;;;;;2.20;1.00;;;;;;;28.24;44.93;98943.09;4825474;29;20069;-57
2022/08/09 03:12:30;;;;;;;1.77;0.90;;;;;;;28.24;43.41;98942.25;4826041;29;20300;-57
2022/08/09 03:15:02;;;;;;;2.70;0.70;;;;;;;28.10;41.34;98938.41;4826316;29;20119;-57
2022/08/09 03:17:36;;;;;;;5.03;0.90;;;;;;;28.04;43.97;98939.09;4826209;29;20066;-56
2022/08/09 03:20:10;;;;;;;1.57;0.80;;;;;;;28.09;44.38;98931.38;4826126;29;20148;-56
2022/08/09 03:22:45;;;;;;;2.60;0.70;;;;;;;28.09;43.90;98939.44;4827721;29;20066;-57
2022/08/09 03:25:27;;;;;;;2.43;1.10;;;;;;;28.04;43.61;98931.88;4829740;29;20058;-56
2022/08/09 03:28:19;;;;;;;2.37;0.70;;;;;;;28.12;45.41;98933.72;4827972;29;20091;-57
2022/08/09 03:30:50;;;;;;;2.53;0.80;;;;;;;28.22;43.79;98944.28;4828829;29;20099;-56
2022/08/09 03:33:22;;;;;;;1.33;0.90;;;;;;;28.25;44.57;98947.44;4828268;29;20323;-55
2022/08/09 03:35:55;;;;;;;7.07;1.20;;;;;;;28.13;43.67;98943.44;4827547;29;20066;-56
2022/08/09 03:38:45;;;;;;;4.13;1.43;;;;;;;28.03;45.63;98940.09;4828353;29;20129;-57
2022/08/09 03:41:16;;;;;;;2.70;0.90;;;;;;;28.06;47.28;98940.63;4829168;29;20286;-57
2022/08/09 03:43:48;;;;;;;1.90;1.20;;;;;;;28.11;46.57;98932.88;4828770;29;20050;-57
2022/08/09 03:46:37;;;;;;;2.23;0.87;;;;;;;28.17;46.38;98939.41;4828904;29;20054;-57
2022/08/09 03:49:09;;;;;;;1.53;0.80;;;;;;;28.24;47.30;98940.41;4828449;29;20064;-57
2022/08/09 03:51:51;;;;;;;1.42;0.73;;;;;;;28.25;46.47;98939.38;4803768;29;20114;-56
2022/08/09 03:54:31;;;;;;;3.03;0.73;;;;;;;28.17;47.23;98944.78;4829008;29;20525;-57
2022/08/09 03:57:06;;;;;;;2.17;0.80;;;;;;;28.24;47.37;98953.84;4828860;29;20199;-56
2022/08/09 03:59:49;;;;;;;1.13;0.80;;;;;;;28.24;47.38;98947.63;4828652;29;20583;-57
2022/08/09 04:02:25;;;;;;;2.97;0.80;;;;;;;28.35;48.96;98961.53;4828000;29;20119;-57
2022/08/09 04:05:02;;;;;;;3.30;0.90;;;;;;;28.35;47.84;98966.06;4828800;29;20082;-57
2022/08/09 04:07:36;;;;;;;6.63;1.43;;;;;;;28.23;46.52;98968.28;4828631;29;20129;-57
2022/08/09 04:10:26;;;;;;;7.83;3.30;;;;;;;27.99;47.50;98933.41;4828230;29;20058;-58
2022/08/09 04:13:08;;;;;;;5.80;1.83;;;;;;;28.00;46.95;98978.03;4827180;29;20056;-57
2022/08/09 04:15:43;;;;;;;7.37;1.20;;;;;;;27.69;45.39;98992.09;4827958;29;20231;-57
2022/08/09 04:18:34;;;;;;;3.27;1.17;;;;;;;27.53;47.15;98988.38;4827449;29;20319;-58
2022/08/09 04:21:04;;;;;;;2.30;1.23;;;;;;;27.46;47.66;98981.16;4825490;29;20072;-57
2022/08/09 04:23:36;;;;;;;1.27;0.90;;;;;;;27.30;46.11;98981.94;4827676;29;20300;-57
2022/08/09 04:26:08;;;;;;;30.33;2.40;;;;;;;27.21;47.95;98982.91;4828292;29;20129;-57
2022/08/09 04:28:38;;;;;;;12.03;2.03;;;;;;;27.44;49.45;98983.16;4828147;29;20043;-57
2022/08/09 04:31:15;;;;;;;2.83;1.07;;;;;;;27.57;46.47;98988.88;4828230;29;20326;-58
2022/08/09 04:33:46;;;;;;;3.63;1.47;;;;;;;27.40;43.68;98993.34;4826984;29;20054;-58
2022/08/09 04:36:28;;;;;;;2.07;0.90;;;;;;;27.14;45.60;98998.78;4827588;29;20443;-57
2022/08/09 04:39:02;;;;;;;9.97;1.20;;;;;;;27.18;47.17;99010.00;4828168;29;20342;-58
2022/08/09 04:41:34;;;;;;;11.43;1.30;;;;;;;27.02;43.73;98994.72;4828158;29;20066;-56
2022/08/09 04:44:20;;;;;;;7.03;1.33;;;;;;;26.93;46.07;99017.94;4827917;29;20117;-56
2022/08/09 04:46:56;;;;;;;2.60;0.80;;;;;;;26.93;43.40;99020.63;4828166;29;20062;-55
2022/08/09 04:49:36;;;;;;;4.07;1.08;;;;;;;26.89;43.99;99028.16;4826222;29;20084;-57
2022/08/09 04:52:25;;;;;;;3.30;0.87;;;;;;;26.80;43.68;99017.56;4823888;29;20061;-56
2022/08/09 04:55:00;;;;;;;7.37;1.23;;;;;;;26.76;45.72;99022.41;4827479;29;20066;-56
2022/08/09 04:57:37;;;;;;;9.10;1.33;;;;;;;26.94;46.40;99025.00;4827296;29;20055;-54
2022/08/09 05:00:28;;;;;;;3.50;0.90;;;;;;;27.13;46.67;99028.44;4827649;29;20112;-56
2022/08/09 05:03:03;;;;;;;8.23;1.00;;;;;;;27.05;42.72;99032.75;4827246;29;20288;-56
2022/08/09 05:05:54;;;;;;;6.90;1.40;;;;;;;27.06;44.74;99030.94;4827766;29;20253;-56
2022/08/09 05:08:36;;;;;;;4.90;1.47;;;;;;;27.18;46.22;99032.34;4827940;29;20119;-55
2022/08/09 05:11:08;;;;;;;3.77;1.30;;;;;;;27.34;46.82;99026.22;4827436;29;20074;-56
2022/08/09 05:13:41;;;;;;;8.33;2.27;;;;;;;27.46;46.14;99030.28;4827535;29;20256;-56
2022/08/09 05:16:12;;;;;;;12.87;1.90;;;;;;;27.49;46.01;99029.94;4827599;29;20197;-55
2022/08/09 05:18:43;;;;;;;14.23;2.10;;;;;;;27.39;43.62;99023.03;4827481;29;20096;-56
2022/08/09 05:21:28;;;;;;;5.87;1.10;;;;;;;27.38;44.00;99024.84;4827916;29;20311;-55
2022/08/09 05:24:16;;;;;;;3.40;1.30;;;;;;;27.29;42.33;99039.28;4827377;29;20360;-56
2022/08/09 05:26:49;;;;;;;1.80;0.90;;;;;;;27.30;43.81;99040.94;4827445;29;20058;-56
2022/08/09 05:29:20;;;;;;;5.90;1.10;;;;;;;27.34;44.35;99034.25;4827575;29;20139;-56
2022/08/09 05:32:00;;;;;;;2.83;1.10;;;;;;;27.28;43.43;99042.94;4827361;29;20066;-56
2022/08/09 05:34:32;;;;;;;5.60;1.07;;;;;;;27.27;43.70;99046.63;4827484;29;20058;-55
2022/08/09 05:37:05;;;;;;;5.30;1.83;;;;;;;27.21;43.97;99052.63;4827241;29;20063;-56
2022/08/09 05:39:41;;;;;;;22.07;10.67;;;;;;;27.26;45.61;99051.16;4827160;29;20058;-55
2022/08/09 05:42:15;;;;;;;8.13;4.40;;;;;;;27.27;45.09;99046.63;4827278;29;20715;-56
2022/08/09 05:44:51;;;;;;;4.27;1.33;;;;;;;27.29;44.99;99039.28;4826541;29;20774;-56
2022/08/09 05:47:23;;;;;;;4.70;1.20;;;;;;;27.26;43.46;99042.28;4827121;29;20125;-56
2022/08/09 05:49:59;;;;;;;7.53;1.23;;;;;;;27.17;44.27;99045.88;4826767;29;20154;-56
2022/08/09 05:52:49;;;;;;;4.87;1.10;;;;;;;27.08;43.94;99032.47;4826787;29;20058;-55
2022/08/09 05:55:23;;;;;;;4.93;1.30;;;;;;;27.19;44.01;99043.94;4827100;29;20054;-56
2022/08/09 05:57:55;;;;;;;9.30;1.40;;;;;;;27.17;43.05;99045.88;4826752;29;20234;-55
2022/08/09 06:00:28;;;;;;;5.60;1.33;;;;;;;27.11;43.03;99025.94;4826972;29;20054;-56
2022/08/09 06:03:00;;;;;;;8.40;1.30;;;;;;;27.15;41.82;99047.88;4827281;29;20111;-55
2022/08/09 06:05:35;;;;;;;1.70;1.00;;;;;;;27.17;42.99;99051.25;4826384;29;20103;-55
2022/08/09 06:08:25;;;;;;;3.73;1.27;;;;;;;27.22;44.74;99065.88;4826621;29;20334;-56
2022/08/09 06:10:57;;;;;;;2.67;1.10;;;;;;;27.13;44.77;99060.59;4826819;29;20051;-56
2022/08/09 06:13:29;;;;;;;4.37;1.10;;;;;;;27.15;44.87;99061.28;4827112;29;20116;-56
2022/08/09 06:16:03;;;;;;;3.17;0.90;;;;;;;27.13;43.21;99065.97;4826657;29;20054;-56
2022/08/09 06:18:35;;;;;;;14.87;1.60;;;;;;;27.04;44.37;99073.97;4826803;29;20046;-57
2022/08/09 06:21:07;;;;;;;2.57;1.00;;;;;;;27.04;43.99;99073.97;4826760;29;20054;-56
2022/08/09 06:23:39;;;;;;;3.10;1.57;;;;;;;27.00;42.09;99087.84;4826705;29;20130;-56
2022/08/09 06:26:25;;;;;;;5.93;1.30;;;;;;;26.91;42.80;99089.66;4826535;29;20054;-56
2022/08/09 06:28:59;;;;;;;7.47;1.40;;;;;;;26.77;42.37;99082.19;4826859;29;20073;-58
2022/08/09 06:31:34;;;;;;;2.13;0.90;;;;;;;26.82;42.33;99085.25;4826682;29;20058;-58
2022/08/09 06:34:25;;;;;;;4.90;1.00;;;;;;;26.68;42.88;99060.72;4825602;29;20050;-56
2022/08/09 06:36:59;;;;;;;2.47;1.00;;;;;;;26.80;43.56;99080.03;4826863;29;20065;-56
2022/08/09 06:39:31;;;;;;;2.93;1.30;;;;;;;26.79;44.04;99080.22;4826795;29;20072;-57
2022/08/09 06:42:22;;;;;;;4.67;2.33;;;;;;;26.76;43.69;99076.00;4826282;29;20267;-57
2022/08/09 06:44:55;;;;;;;6.57;1.63;;;;;;;26.76;44.13;99075.13;4824422;29;20058;-57
2022/08/09 06:47:26;;;;;;;18.03;1.77;;;;;;;26.74;44.60;99066.44;4825087;29;20066;-58
2022/08/09 06:50:11;;;;;;;4.77;1.40;;;;;;;26.75;45.14;99073.47;4826202;29;20240;-57
2022/08/09 06:52:50;;;;;;;4.63;1.10;;;;;;;26.75;43.57;99073.47;4826304;29;20617;-58
2022/08/09 06:55:28;;;;;;;7.10;1.13;;;;;;;26.74;45.58;99067.28;4826153;29;20070;-58
2022/08/09 06:58:00;;;;;;;1.83;1.08;;;;;;;26.80;45.25;99071.16;4825401;29;20054;-57
2022/08/09 07:00:36;;;;;;;2.13;1.10;;;;;;;26.76;44.68;99069.78;4826049;29;20054;-57
2022/08/09 07:03:25;;;;;;;3.37;1.20;;;;;;;26.72;44.56;99068.44;4826146;29;20047;-58
2022/08/09 07:05:59;;;;;;;6.77;1.47;;;;;;;26.74;44.63;99077.16;4826305;29;20077;-57
2022/08/09 07:08:35;;;;;;;4.67;1.17;;;;;;;26.61;45.12;99067.69;4826372;29;20054;-58
2022/08/09 07:11:08;;;;;;;7.77;1.53;;;;;;;26.71;44.69;99082.81;4826047;29;20050;-57
2022/08/09 07:13:46;;;;;;;3.08;0.98;;;;;;;26.73;44.95;99083.50;4826186;29;20552;-58
2022/08/09 07:16:36;;;;;;;11.02;1.55;;;;;;;26.75;45.06;99074.31;4826148;29;20121;-58
2022/08/09 07:19:17;;;;;;;5.80;1.13;;;;;;;26.80;45.50;99073.84;4825200;29;20073;-58
2022/08/09 07:21:52;;;;;;;16.33;2.23;;;;;;;26.84;45.24;99085.94;4826059;29;20050;-58
2022/08/09 07:24:29;;;;;;;3.40;1.00;;;;;;;26.84;45.61;99083.25;4826114;29;20073;-58
2022/08/09 07:27:13;;;;;;;4.97;1.73;;;;;;;26.74;45.96;99061.91;4826266;29;20058;-58
2022/08/09 07:30:02;;;;;;;4.57;1.37;;;;;;;26.35;45.32;99016.75;4826110;29;20092;-58
2022/08/09 07:32:35;;;;;;;26.43;1.83;;;;;;;26.62;46.47;99047.94;4825876;29;20069;-58
2022/08/09 07:35:11;;;;;;;3.83;1.20;;;;;;;26.60;46.99;99039.22;4825115;29;20086;-58
2022/08/09 07:37:45;;;;;;;22.10;2.00;;;;;;;26.64;47.28;99051.31;4825706;29;20062;-58
2022/08/09 07:40:19;;;;;;;4.03;1.37;;;;;;;26.64;46.86;99070.06;4825610;29;20105;-58
2022/08/09 07:43:02;;;;;;;22.57;2.60;;;;;;;26.56;45.35;99083.41;4825809;29;20070;-58
2022/08/09 07:45:45;;;;;;;6.43;1.33;;;;;;;26.42;45.10;99078.56;4825630;29;20471;-57
2022/08/09 07:48:18;;;;;;;2.13;1.10;;;;;;;26.33;45.64;99068.78;4825838;29;20066;-58
2022/08/09 07:51:00;;;;;;;4.47;1.03;;;;;;;25.94;45.49;99026.31;4825950;29;20133;-58
2022/08/09 07:53:52;;;;;;;5.80;1.23;;;;;;;26.16;45.63;99079.38;4825326;29;20081;-58
2022/08/09 07:56:33;;;;;;;3.53;1.30;;;;;;;26.04;46.74;99048.47;4825686;29;20413;-58
2022/08/09 07:59:06;;;;;;;9.60;1.50;;;;;;;26.09;46.38;99048.84;4826055;29;20517;-57
2022/08/09 08:01:49;;;;;;;6.87;0.67;;;;;;;26.03;45.47;99060.16;4825428;29;20089;-58
2022/08/09 08:04:23;;;;;;;5.93;1.40;;;;;;;25.98;45.86;99059.78;4825609;29;20358;-57
2022/08/09 08:07:03;;;;;;;13.30;1.50;;;;;;;25.89;46.37;99040.13;4825860;29;20051;-57
2022/08/09 08:09:54;;;;;;;5.80;0.90;;;;;;;25.96;48.16;99061.75;4828094;29;20046;-57
2022/08/09 08:12:40;;;;;;;4.63;1.27;;;;;;;25.85;47.69;99048.59;4828583;29;20192;-58
2022/08/09 08:15:16;;;;;;;6.17;1.20;;;;;;;25.81;47.91;99048.91;4828457;29;20103;-58
2022/08/09 08:17:52;;;;;;;5.57;1.20;;;;;;;25.79;48.09;99056.22;4828404;29;20610;-58
2022/08/09 08:20:30;;;;;;;8.10;1.20;;;;;;;25.69;47.51;99050.13;4828712;29;20114;-58
2022/08/09 08:23:04;;;;;;;6.27;1.00;;;;;;;25.60;47.08;99049.16;4828677;29;20073;-59
2022/08/09 08:25:46;;;;;;;4.40;1.40;;;;;;;25.55;47.08;99058.66;4828305;29;20411;-59
2022/08/09 08:28:35;;;;;;;11.43;2.40;;;;;;;25.52;47.21;99061.63;4828465;29;20100;-59
2022/08/09 08:31:06;;;;;;;3.97;1.80;;;;;;;25.51;48.26;99070.63;4828395;29;20105;-59
2022/08/09 08:33:44;;;;;;;5.13;1.43;;;;;;;25.40;47.58;99064.50;4827808;29;20065;-57
2022/08/09 08:36:26;;;;;;;3.13;1.33;;;;;;;25.31;47.71;99057.38;4828186;29;20058;-59
2022/08/09 08:38:59;;;;;;;10.77;1.73;;;;;;;25.27;48.58;99072.03;4827249;29;20103;-58
2022/08/09 08:41:30;;;;;;;9.93;1.40;;;;;;;25.12;49.32;99052.09;4827134;29;20074;-57
2022/08/09 08:44:23;;;;;;;2.93;1.07;;;;;;;25.08;49.64;99066.72;4826976;29;20079;-58
2022/08/09 08:46:58;;;;;;;22.10;2.87;;;;;;;24.89;49.83;99044.44;4828404;29;20243;-58
2022/08/09 08:49:41;;;;;;;18.57;1.77;;;;;;;24.96;50.36;99069.59;4828127;29;20066;-58
2022/08/09 08:52:21;;;;;;;6.00;2.00;;;;;;;24.58;49.12;99033.16;4828049;29;20051;-58
2022/08/09 08:55:12;;;;;;;3.33;1.47;;;;;;;24.73;49.78;99069.09;4827664;29;20046;-58
2022/08/09 08:57:44;;;;;;;2.83;1.50;;;;;;;24.67;49.37;99079.53;4827683;29;20057;-58
2022/08/09 09:00:30;;;;;;;13.30;2.90;;;;;;;24.56;49.48;99082.34;4827278;29;20072;-58
2022/08/09 09:03:04;;;;;;;4.80;1.30;;;;;;;24.37;49.08;99065.34;4827665;29;20057;-58
2022/08/09 09:05:55;;;;;;;21.63;1.88;;;;;;;24.42;49.26;99081.78;4827242;29;20058;-58
2022/08/09 09:08:37;;;;;;;11.37;1.40;;;;;;;24.29;49.61;99078.56;4827317;29;20129;-59
2022/08/09 09:11:12;;;;;;;6.00;1.40;;;;;;;24.02;49.95;99064.09;4827663;29;20066;-59
2022/08/09 09:13:50;;;;;;;3.53;1.30;;;;;;;23.94;50.63;99076.44;4827144;29;20526;-58
2022/08/09 09:16:29;;;;;;;4.80;1.42;;;;;;;23.85;50.46;99083.47;4827538;29;20050;-59
2022/08/09 09:19:04;;;;;;;3.37;1.07;;;;;;;23.84;50.64;99092.47;4826855;29;20371;-59
2022/08/09 09:22:03;;;;;;;11.93;1.57;;;;;;;23.73;50.47;99090.75;4826698;29;20038;-59
2022/08/09 09:24:43;;;;;;;3.93;1.53;;;;;;;23.65;50.75;99104.72;4827167;29;20091;-59
2022/08/09 09:27:16;;;;;;;5.57;1.90;;;;;;;23.55;52.32;99101.19;4826816;29;20087;-58
2022/08/09 09:30:14;;;;;;;5.30;1.40;;;;;;;23.40;53.32;99105.22;4826668;29;20239;-59
2022/08/09 09:33:09;;;;;;;56.80;4.72;;;;;;;23.10;53.20;99109.59;4827119;29;20067;-59
2022/08/09 09:35:57;;;;;;;17.40;2.03;;;;;;;22.84;54.30;99103.84;4826492;29;20314;-59
2022/08/09 09:38:47;;;;;;;13.93;1.70;;;;;;;22.53;55.27;99110.91;4827266;29;20062;-59
2022/08/09 09:41:33;;;;;;;5.57;1.97;;;;;;;22.21;56.67;99109.13;4827087;29;20227;-58
2022/08/09 09:44:25;;;;;;;4.73;1.70;;;;;;;21.90;58.59;99124.91;4826757;29;20066;-58
2022/08/09 09:47:07;;;;;;;21.00;2.50;;;;;;;21.47;60.24;99098.31;4826964;29;20070;-57
2022/08/09 09:49:39;;;;;;;5.50;1.52;;;;;;;21.61;60.79;99134.38;4827047;29;20056;-56
2022/08/09 09:52:30;;;;;;;28.77;1.90;;;;;;;21.47;60.63;99128.38;4826485;29;20400;-56
2022/08/09 09:55:08;;;;;;;12.60;1.90;;;;;;;21.31;60.42;99119.88;4826723;29;20070;-57
2022/08/09 09:58:03;;;;;;;10.03;2.57;;;;;;;21.17;60.60;99120.13;4827014;29;20129;-56
2022/08/09 10:00:49;;;;;;;10.87;1.83;;;;;;;21.06;60.97;99126.28;4826679;29;20064;-56
2022/08/09 10:03:42;;;;;;;18.13;2.00;;;;;;;20.97;60.33;99119.88;4826998;29;20073;-56
2022/08/09 10:06:25;;;;;;;13.73;2.20;;;;;;;20.84;60.16;99124.44;4826702;29;20452;-56
2022/08/09 10:09:02;;;;;;;9.17;2.07;;;;;;;20.77;60.15;99133.88;4827001;29;20288;-57
2022/08/09 10:11:58;;;;;;;16.30;2.50;;;;;;;20.63;60.93;99138.38;4826627;29;20828;-57
2022/08/09 10:14:50;;;;;;;10.90;1.70;;;;;;;20.54;60.80;99144.34;4826505;29;20617;-56
2022/08/09 10:17:22;;;;;;;12.03;1.80;;;;;;;20.41;61.15;99138.28;4826454;29;20355;-56
2022/08/09 10:20:27;;;;;;;10.53;1.77;;;;;;;20.38;61.99;99154.44;4826679;29;20506;-58
2022/08/09 10:23:16;;;;;;;11.65;2.25;;;;;;;20.28;62.86;99164.03;4826491;29;20569;-58
2022/08/09 10:25:50;;;;;;;21.13;2.87;;;;;;;20.25;64.09;99165.13;4826813;29;20157;-58
2022/08/09 10:28:41;;;;;;;22.03;2.23;;;;;;;20.10;64.97;99167.09;4826352;29;20292;-58
2022/08/09 10:31:34;;;;;;;17.17;2.70;;;;;;;19.90;65.68;99175.66;4826353;29;20344;-59
2022/08/09 10:34:25;;;;;;;8.80;2.00;;;;;;;19.70;66.58;99177.94;4826418;29;20308;-59
2022/08/09 10:37:03;;;;;;;12.67;2.53;;;;;;;19.50;66.80;99189.06;4826455;29;20284;-59
2022/08/09 10:39:40;;;;;;;14.40;1.87;;;;;;;19.37;67.54;99192.56;4826528;29;20318;-58
2022/08/09 10:42:18;;;;;;;10.03;2.20;;;;;;;19.09;68.05;99171.59;4826381;29;20337;-58
2022/08/09 10:45:00;;;;;;;12.83;2.00;;;;;;;19.10;68.40;99191.84;4826304;29;20296;-59
2022/08/09 10:47:48;;;;;;;20.30;2.40;;;;;;;18.92;69.05;99181.56;4826101;29;20353;-59
2022/08/09 10:53:51;;;;;;;16.73;2.40;;;;;;;18.62;69.92;99205.59;4825761;29;20487;-59
2022/08/09 10:56:25;;;;;;;10.98;2.20;;;;;;;18.50;70.56;99194.03;4826570;29;21293;-59
2022/08/09 10:58:58;;;;;;;14.40;2.40;;;;;;;18.37;71.22;99195.81;4826545;29;20094;-59
2022/08/09 11:01:41;;;;;;;19.90;3.20;;;;;;;18.30;71.78;99191.84;4826224;29;20606;-59
2022/08/09 11:04:34;;;;;;;37.27;3.90;;;;;;;18.24;73.02;99187.78;4825794;29;20328;-59
2022/08/09 11:07:29;;;;;;;36.90;4.47;;;;;;;18.26;73.86;99195.63;4825682;29;20349;-60
2022/08/09 11:10:54;;;;;;;37.63;3.63;;;;;;;18.05;74.66;99180.22;4826014;29;20288;-59
2022/08/09 11:13:37;;;;;;;18.43;2.70;;;;;;;18.07;75.13;99191.56;4826086;29;20292;-59
2022/08/09 11:16:38;;;;;;;18.13;4.70;;;;;;;17.91;75.88;99185.53;4825648;29;20316;-59
2022/08/09 11:19:10;;;;;;;14.63;5.13;;;;;;;17.95;75.47;99200.25;4825989;29;20326;-60
2022/08/09 11:21:59;;;;;;;21.83;5.87;;;;;;;17.92;74.99;99211.00;4825656;29;20376;-59
2022/08/09 11:25:07;;;;;;;13.02;5.13;;;;;;;17.86;74.57;99216.69;4825529;29;20280;-60
2022/08/09 11:27:40;;;;;;;22.00;5.63;;;;;;;17.73;74.74;99223.66;4825639;29;20291;-59
2022/08/09 11:30:36;;;;;;;25.83;13.13;;;;;;;17.39;75.83;99215.19;4825847;29;20336;-59
2022/08/09 11:33:25;;;;;;;10.43;5.43;;;;;;;17.27;77.16;99221.19;4825352;29;20337;-59
2022/08/09 11:35:58;;;;;;;5.80;3.53;;;;;;;17.17;77.60;99219.13;4824784;29;20363;-59
2022/08/09 11:38:33;;;;;;;12.77;5.47;;;;;;;17.11;78.11;99227.41;4826297;29;20058;-59
2022/08/09 11:41:29;;;;;;;14.43;5.30;;;;;;;17.11;78.97;99231.84;4825671;29;20364;-59
2022/08/09 11:44:09;;;;;;;11.25;5.07;;;;;;;16.98;79.42;99216.72;4827720;29;20300;-59
2022/08/09 11:46:56;;;;;;;11.83;4.93;;;;;;;16.93;79.60;99207.41;4825683;29;20058;-59
2022/08/09 11:50:01;;;;;;;34.83;5.33;;;;;;;17.07;80.16;99240.88;4829240;29;20295;-59
2022/08/09 11:53:22;;;;;;;23.07;4.83;;;;;;;17.05;80.77;99243.63;4831842;29;20591;-59
2022/08/09 11:56:34;;;;;;;12.83;4.30;;;;;;;17.03;80.81;99245.50;4832257;29;20440;-59
2022/08/09 11:59:27;;;;;;;16.53;4.50;;;;;;;17.02;80.92;99254.34;4832238;29;20360;-59
2022/08/09 12:02:02;;;;;;;13.10;5.23;;;;;;;17.02;80.95;99249.94;4832102;29;20314;-59
2022/08/09 12:04:53;;;;;;;10.77;4.43;;;;;;;16.99;81.03;99254.53;4832243;29;20453;-59
2022/08/09 12:07:32;;;;;;;8.77;3.90;;;;;;;16.95;81.05;99253.03;4832338;29;20284;-59
2022/08/09 12:10:12;;;;;;;8.87;3.90;;;;;;;16.94;81.24;99251.31;4832071;29;20300;-60
2022/08/09 12:13:04;;;;;;;19.50;4.60;;;;;;;16.93;81.56;99260.19;4832368;29;20283;-59
2022/08/09 12:16:01;;;;;;;22.93;4.67;;;;;;;16.85;81.53;99260.63;4832312;29;20636;-60
2022/08/09 12:18:32;;;;;;;16.27;4.97;;;;;;;16.78;81.53;99262.75;4832227;29;20318;-59
2022/08/09 12:21:06;;;;;;;14.57;5.47;;;;;;;16.78;80.93;99261.91;4831919;29;20307;-59
2022/08/09 12:23:57;;;;;;;11.83;5.30;;;;;;;16.70;81.11;99264.09;4832017;29;20296;-60
2022/08/09 12:26:43;;;;;;;12.90;5.13;;;;;;;16.67;81.19;99265.13;4832041;29;20469;-59
2022/08/09 12:29:36;;;;;;;9.83;3.80;;;;;;;16.73;81.64;99264.78;4831790;29;20430;-59
2022/08/09 12:32:27;;;;;;;7.60;2.77;;;;;;;16.70;81.72;99248.25;4831682;29;20605;-60
2022/08/09 12:35:01;;;;;;;6.90;2.53;;;;;;;16.90;82.06;99255.94;4831684;29;20346;-59
2022/08/09 12:37:34;;;;;;;10.00;2.00;;;;;;;17.05;82.49;99259.47;4831991;29;20318;-59